sensor_id;sensor_type;location;lat;lon;timestamp;temperature;humidity
69335;SHT31;56477;52.742;15.242;2023-06-05T00:01:25;13.54;56.81
69335;SHT31;56477;52.742;15.242;2023-06-05T00:03:51;13.54;55.94
69335;SHT31;56477;52.742;15.242;2023-06-05T00:06:18;13.51;55.50
69335;SHT31;56477;52.742;15.242;2023-06-05T00:08:45;13.47;55.57
69335;SHT31;56477;52.742;15.242;2023-06-05T00:11:11;13.50;55.36
69335;SHT31;56477;52.742;15.242;2023-06-05T00:13:37;13.50;56.03
69335;SHT31;56477;52.742;15.242;2023-06-05T00:16:03;13.46;56.00
69335;SHT31;56477;52.742;15.242;2023-06-05T00:18:30;13.44;56.34
69335;SHT31;56477;52.742;15.242;2023-06-05T00:20:56;13.44;56.27
69335;SHT31;56477;52.742;15.242;2023-06-05T00:23:22;13.39;56.00
69335;SHT31;56477;52.742;15.242;2023-06-05T00:25:48;13.32;56.37
69335;SHT31;56477;52.742;15.242;2023-06-05T00:28:14;13.32;56.53
69335;SHT31;56477;52.742;15.242;2023-06-05T00:30:40;13.29;56.69
69335;SHT31;56477;52.742;15.242;2023-06-05T00:33:06;13.35;56.27
69335;SHT31;56477;52.742;15.242;2023-06-05T00:35:32;13.33;56.31
69335;SHT31;56477;52.742;15.242;2023-06-05T00:37:58;13.26;56.19
69335;SHT31;56477;52.742;15.242;2023-06-05T00:40:24;13.27;56.42
69335;SHT31;56477;52.742;15.242;2023-06-05T00:42:50;13.24;56.27
69335;SHT31;56477;52.742;15.242;2023-06-05T00:45:16;13.27;56.33
69335;SHT31;56477;52.742;15.242;2023-06-05T00:47:42;13.27;56.81
69335;SHT31;56477;52.742;15.242;2023-06-05T00:50:10;13.23;56.91
69335;SHT31;56477;52.742;15.242;2023-06-05T00:52:38;13.18;57.21
69335;SHT31;56477;52.742;15.242;2023-06-05T00:55:05;13.13;57.37
69335;SHT31;56477;52.742;15.242;2023-06-05T00:57:32;13.09;57.06
69335;SHT31;56477;52.742;15.242;2023-06-05T01:00:01;13.12;57.26
69335;SHT31;56477;52.742;15.242;2023-06-05T01:02:28;13.08;57.43
69335;SHT31;56477;52.742;15.242;2023-06-05T01:04:54;13.06;57.29
69335;SHT31;56477;52.742;15.242;2023-06-05T01:07:22;12.98;57.85
69335;SHT31;56477;52.742;15.242;2023-06-05T01:09:48;12.89;57.91
69335;SHT31;56477;52.742;15.242;2023-06-05T01:12:25;12.89;58.13
69335;SHT31;56477;52.742;15.242;2023-06-05T01:14:53;12.85;58.18
69335;SHT31;56477;52.742;15.242;2023-06-05T01:17:26;12.88;58.58
69335;SHT31;56477;52.742;15.242;2023-06-05T01:19:55;12.77;58.65
69335;SHT31;56477;52.742;15.242;2023-06-05T01:22:21;12.77;58.72
69335;SHT31;56477;52.742;15.242;2023-06-05T01:24:47;12.72;58.74
69335;SHT31;56477;52.742;15.242;2023-06-05T01:27:32;12.68;59.21
69335;SHT31;56477;52.742;15.242;2023-06-05T01:30:36;12.67;59.08
69335;SHT31;56477;52.742;15.242;2023-06-05T01:33:15;12.60;59.12
69335;SHT31;56477;52.742;15.242;2023-06-05T01:35:43;12.51;59.63
69335;SHT31;56477;52.742;15.242;2023-06-05T01:38:11;12.50;60.06
69335;SHT31;56477;52.742;15.242;2023-06-05T01:40:37;12.41;60.15
69335;SHT31;56477;52.742;15.242;2023-06-05T01:43:04;12.33;61.93
69335;SHT31;56477;52.742;15.242;2023-06-05T01:45:32;12.22;62.48
69335;SHT31;56477;52.742;15.242;2023-06-05T01:47:58;12.20;62.67
69335;SHT31;56477;52.742;15.242;2023-06-05T01:50:24;12.16;61.33
69335;SHT31;56477;52.742;15.242;2023-06-05T01:52:50;12.13;61.60
69335;SHT31;56477;52.742;15.242;2023-06-05T01:55:21;12.12;61.27
69335;SHT31;56477;52.742;15.242;2023-06-05T01:57:50;12.10;61.61
69335;SHT31;56477;52.742;15.242;2023-06-05T02:00:16;12.07;61.51
69335;SHT31;56477;52.742;15.242;2023-06-05T02:02:44;12.06;62.06
69335;SHT31;56477;52.742;15.242;2023-06-05T02:05:13;12.00;62.08
69335;SHT31;56477;52.742;15.242;2023-06-05T02:07:44;11.95;62.36
69335;SHT31;56477;52.742;15.242;2023-06-05T02:10:13;11.93;62.18
69335;SHT31;56477;52.742;15.242;2023-06-05T02:12:39;11.92;62.52
69335;SHT31;56477;52.742;15.242;2023-06-05T02:15:08;11.89;62.93
69335;SHT31;56477;52.742;15.242;2023-06-05T02:17:44;11.82;63.05
69335;SHT31;56477;52.742;15.242;2023-06-05T02:20:17;11.78;63.09
69335;SHT31;56477;52.742;15.242;2023-06-05T02:22:42;11.78;62.22
69335;SHT31;56477;52.742;15.242;2023-06-05T02:25:11;11.81;62.52
69335;SHT31;56477;52.742;15.242;2023-06-05T02:27:38;11.81;63.10
69335;SHT31;56477;52.742;15.242;2023-06-05T02:30:04;11.79;62.77
69335;SHT31;56477;52.742;15.242;2023-06-05T02:32:31;11.75;63.41
69335;SHT31;56477;52.742;15.242;2023-06-05T02:34:57;11.72;63.15
69335;SHT31;56477;52.742;15.242;2023-06-05T02:37:24;11.75;63.39
69335;SHT31;56477;52.742;15.242;2023-06-05T02:39:52;11.74;63.30
69335;SHT31;56477;52.742;15.242;2023-06-05T02:42:17;11.71;63.63
69335;SHT31;56477;52.742;15.242;2023-06-05T02:44:45;11.72;63.65
69335;SHT31;56477;52.742;15.242;2023-06-05T02:47:12;11.71;63.95
69335;SHT31;56477;52.742;15.242;2023-06-05T02:49:38;11.69;64.69
69335;SHT31;56477;52.742;15.242;2023-06-05T02:52:04;11.61;64.98
69335;SHT31;56477;52.742;15.242;2023-06-05T02:54:30;11.51;65.73
69335;SHT31;56477;52.742;15.242;2023-06-05T02:56:56;11.44;66.65
69335;SHT31;56477;52.742;15.242;2023-06-05T02:59:26;11.28;67.77
69335;SHT31;56477;52.742;15.242;2023-06-05T03:01:53;11.21;68.35
69335;SHT31;56477;52.742;15.242;2023-06-05T03:04:20;11.10;69.91
69335;SHT31;56477;52.742;15.242;2023-06-05T03:06:50;11.00;70.06
69335;SHT31;56477;52.742;15.242;2023-06-05T03:09:16;10.96;70.57
69335;SHT31;56477;52.742;15.242;2023-06-05T03:11:43;10.92;70.43
69335;SHT31;56477;52.742;15.242;2023-06-05T03:14:09;10.92;70.61
69335;SHT31;56477;52.742;15.242;2023-06-05T03:16:35;10.90;71.29
69335;SHT31;56477;52.742;15.242;2023-06-05T03:19:08;10.84;71.08
69335;SHT31;56477;52.742;15.242;2023-06-05T03:21:35;10.83;70.45
69335;SHT31;56477;52.742;15.242;2023-06-05T03:24:01;10.86;70.57
69335;SHT31;56477;52.742;15.242;2023-06-05T03:26:27;10.84;70.73
69335;SHT31;56477;52.742;15.242;2023-06-05T03:28:54;10.89;70.25
69335;SHT31;56477;52.742;15.242;2023-06-05T03:31:20;10.93;70.58
69335;SHT31;56477;52.742;15.242;2023-06-05T03:33:46;10.90;70.43
69335;SHT31;56477;52.742;15.242;2023-06-05T03:36:12;10.89;70.47
69335;SHT31;56477;52.742;15.242;2023-06-05T03:38:41;10.89;69.49
69335;SHT31;56477;52.742;15.242;2023-06-05T03:41:06;10.96;69.49
69335;SHT31;56477;52.742;15.242;2023-06-05T03:43:33;11.07;69.30
69335;SHT31;56477;52.742;15.242;2023-06-05T03:45:59;11.06;70.52
69335;SHT31;56477;52.742;15.242;2023-06-05T03:48:25;11.06;71.06
69335;SHT31;56477;52.742;15.242;2023-06-05T03:50:52;10.97;71.62
69335;SHT31;56477;52.742;15.242;2023-06-05T03:53:19;10.99;71.51
69335;SHT31;56477;52.742;15.242;2023-06-05T03:55:45;11.00;70.90
69335;SHT31;56477;52.742;15.242;2023-06-05T03:58:13;11.01;72.23
69335;SHT31;56477;52.742;15.242;2023-06-05T04:00:43;10.95;72.80
69335;SHT31;56477;52.742;15.242;2023-06-05T04:03:11;10.96;73.00
69335;SHT31;56477;52.742;15.242;2023-06-05T04:05:38;10.93;73.04
69335;SHT31;56477;52.742;15.242;2023-06-05T04:08:05;10.95;72.83
69335;SHT31;56477;52.742;15.242;2023-06-05T04:10:31;11.01;71.56
69335;SHT31;56477;52.742;15.242;2023-06-05T04:12:58;11.08;71.70
69335;SHT31;56477;52.742;15.242;2023-06-05T04:15:24;11.11;72.19
69335;SHT31;56477;52.742;15.242;2023-06-05T04:17:50;11.14;72.02
69335;SHT31;56477;52.742;15.242;2023-06-05T04:20:16;11.21;71.86
69335;SHT31;56477;52.742;15.242;2023-06-05T04:22:43;11.27;72.06
69335;SHT31;56477;52.742;15.242;2023-06-05T04:25:09;11.23;73.11
69335;SHT31;56477;52.742;15.242;2023-06-05T04:27:39;11.21;73.39
69335;SHT31;56477;52.742;15.242;2023-06-05T04:30:07;11.27;72.66
69335;SHT31;56477;52.742;15.242;2023-06-05T04:32:38;11.35;71.83
69335;SHT31;56477;52.742;15.242;2023-06-05T04:35:08;11.48;71.48
69335;SHT31;56477;52.742;15.242;2023-06-05T04:37:36;11.62;71.06
69335;SHT31;56477;52.742;15.242;2023-06-05T04:40:02;11.76;70.82
69335;SHT31;56477;52.742;15.242;2023-06-05T04:42:32;11.86;69.11
69335;SHT31;56477;52.742;15.242;2023-06-05T04:45:00;11.97;68.33
69335;SHT31;56477;52.742;15.242;2023-06-05T04:47:30;12.09;68.36
69335;SHT31;56477;52.742;15.242;2023-06-05T04:50:00;12.22;68.45
69335;SHT31;56477;52.742;15.242;2023-06-05T04:52:32;12.36;68.79
69335;SHT31;56477;52.742;15.242;2023-06-05T04:54:59;12.37;68.41
69335;SHT31;56477;52.742;15.242;2023-06-05T04:57:28;12.45;69.63
69335;SHT31;56477;52.742;15.242;2023-06-05T04:59:54;12.57;68.92
69335;SHT31;56477;52.742;15.242;2023-06-05T05:02:21;12.67;68.08
69335;SHT31;56477;52.742;15.242;2023-06-05T05:04:47;12.80;67.53
69335;SHT31;56477;52.742;15.242;2023-06-05T05:07:13;12.92;67.02
69335;SHT31;56477;52.742;15.242;2023-06-05T05:09:42;13.05;65.66
69335;SHT31;56477;52.742;15.242;2023-06-05T05:12:09;13.18;66.08
69335;SHT31;56477;52.742;15.242;2023-06-05T05:14:35;13.20;67.64
69335;SHT31;56477;52.742;15.242;2023-06-05T05:17:02;13.22;66.45
69335;SHT31;56477;52.742;15.242;2023-06-05T05:19:29;13.32;64.73
69335;SHT31;56477;52.742;15.242;2023-06-05T05:21:55;13.56;63.37
69335;SHT31;56477;52.742;15.242;2023-06-05T05:24:21;13.74;64.40
69335;SHT31;56477;52.742;15.242;2023-06-05T05:26:48;13.81;63.22
69335;SHT31;56477;52.742;15.242;2023-06-05T05:29:14;13.91;61.81
69335;SHT31;56477;52.742;15.242;2023-06-05T05:31:40;14.04;61.59
69335;SHT31;56477;52.742;15.242;2023-06-05T05:34:06;14.14;61.00
69335;SHT31;56477;52.742;15.242;2023-06-05T05:36:32;14.25;61.20
69335;SHT31;56477;52.742;15.242;2023-06-05T05:39:00;14.40;61.34
69335;SHT31;56477;52.742;15.242;2023-06-05T05:41:26;14.53;61.09
69335;SHT31;56477;52.742;15.242;2023-06-05T05:43:52;14.70;60.32
69335;SHT31;56477;52.742;15.242;2023-06-05T05:46:18;14.76;59.76
69335;SHT31;56477;52.742;15.242;2023-06-05T05:48:44;14.83;60.01
69335;SHT31;56477;52.742;15.242;2023-06-05T05:51:10;15.00;59.35
69335;SHT31;56477;52.742;15.242;2023-06-05T05:53:36;15.14;58.97
69335;SHT31;56477;52.742;15.242;2023-06-05T05:56:02;15.28;59.12
69335;SHT31;56477;52.742;15.242;2023-06-05T05:58:29;15.36;57.94
69335;SHT31;56477;52.742;15.242;2023-06-05T06:00:55;15.51;58.22
69335;SHT31;56477;52.742;15.242;2023-06-05T06:03:21;15.65;58.09
69335;SHT31;56477;52.742;15.242;2023-06-05T06:05:49;15.81;58.36
69335;SHT31;56477;52.742;15.242;2023-06-05T06:08:15;15.92;58.18
69335;SHT31;56477;52.742;15.242;2023-06-05T06:10:42;16.03;57.74
69335;SHT31;56477;52.742;15.242;2023-06-05T06:13:08;16.06;57.36
69335;SHT31;56477;52.742;15.242;2023-06-05T06:15:36;15.99;55.85
69335;SHT31;56477;52.742;15.242;2023-06-05T06:18:05;16.14;56.53
69335;SHT31;56477;52.742;15.242;2023-06-05T06:20:31;16.28;56.88
69335;SHT31;56477;52.742;15.242;2023-06-05T06:22:59;16.45;56.64
69335;SHT31;56477;52.742;15.242;2023-06-05T06:25:25;16.55;56.42
69335;SHT31;56477;52.742;15.242;2023-06-05T06:27:55;16.60;57.41
69335;SHT31;56477;52.742;15.242;2023-06-05T06:30:21;16.78;56.01
69335;SHT31;56477;52.742;15.242;2023-06-05T06:32:47;16.79;56.49
69335;SHT31;56477;52.742;15.242;2023-06-05T06:35:14;16.89;55.05
69335;SHT31;56477;52.742;15.242;2023-06-05T06:37:40;17.06;54.83
69335;SHT31;56477;52.742;15.242;2023-06-05T06:40:07;17.20;54.60
69335;SHT31;56477;52.742;15.242;2023-06-05T06:42:39;17.36;55.04
69335;SHT31;56477;52.742;15.242;2023-06-05T06:45:06;17.54;55.39
69335;SHT31;56477;52.742;15.242;2023-06-05T06:47:32;17.58;54.87
69335;SHT31;56477;52.742;15.242;2023-06-05T06:49:58;17.68;54.29
69335;SHT31;56477;52.742;15.242;2023-06-05T06:52:24;17.73;54.44
69335;SHT31;56477;52.742;15.242;2023-06-05T06:54:50;17.82;54.71
69335;SHT31;56477;52.742;15.242;2023-06-05T06:57:16;18.01;54.60
69335;SHT31;56477;52.742;15.242;2023-06-05T06:59:42;18.13;51.49
69335;SHT31;56477;52.742;15.242;2023-06-05T07:02:16;18.32;51.55
69335;SHT31;56477;52.742;15.242;2023-06-05T07:04:43;18.37;52.27
69335;SHT31;56477;52.742;15.242;2023-06-05T07:07:13;18.59;52.26
69335;SHT31;56477;52.742;15.242;2023-06-05T07:09:41;18.80;52.03
69335;SHT31;56477;52.742;15.242;2023-06-05T07:12:11;18.83;50.77
69335;SHT31;56477;52.742;15.242;2023-06-05T07:14:37;18.84;50.54
69335;SHT31;56477;52.742;15.242;2023-06-05T07:17:04;19.18;49.16
69335;SHT31;56477;52.742;15.242;2023-06-05T07:19:31;19.65;48.91
69335;SHT31;56477;52.742;15.242;2023-06-05T07:21:59;20.65;47.94
69335;SHT31;56477;52.742;15.242;2023-06-05T07:24:25;22.01;45.92
69335;SHT31;56477;52.742;15.242;2023-06-05T07:26:54;23.19;41.97
69335;SHT31;56477;52.742;15.242;2023-06-05T07:29:24;23.94;40.05
69335;SHT31;56477;52.742;15.242;2023-06-05T07:31:51;24.04;39.22
69335;SHT31;56477;52.742;15.242;2023-06-05T07:34:18;24.35;37.69
69335;SHT31;56477;52.742;15.242;2023-06-05T07:36:45;23.92;39.32
69335;SHT31;56477;52.742;15.242;2023-06-05T07:39:12;24.89;38.35
69335;SHT31;56477;52.742;15.242;2023-06-05T07:41:39;25.15;38.40
69335;SHT31;56477;52.742;15.242;2023-06-05T07:44:13;25.63;35.87
69335;SHT31;56477;52.742;15.242;2023-06-05T07:46:40;25.81;34.72
69335;SHT31;56477;52.742;15.242;2023-06-05T07:49:07;25.73;36.84
69335;SHT31;56477;52.742;15.242;2023-06-05T07:51:33;26.35;36.13
69335;SHT31;56477;52.742;15.242;2023-06-05T07:54:08;26.39;35.81
69335;SHT31;56477;52.742;15.242;2023-06-05T07:56:35;26.47;36.05
69335;SHT31;56477;52.742;15.242;2023-06-05T07:59:04;26.09;36.52
69335;SHT31;56477;52.742;15.242;2023-06-05T08:01:30;26.15;36.40
69335;SHT31;56477;52.742;15.242;2023-06-05T08:03:57;26.15;36.94
69335;SHT31;56477;52.742;15.242;2023-06-05T08:06:24;26.23;36.98
69335;SHT31;56477;52.742;15.242;2023-06-05T08:08:51;25.71;37.91
69335;SHT31;56477;52.742;15.242;2023-06-05T08:11:17;26.26;36.69
69335;SHT31;56477;52.742;15.242;2023-06-05T08:13:43;25.71;38.01
69335;SHT31;56477;52.742;15.242;2023-06-05T08:16:09;26.40;37.09
69335;SHT31;56477;52.742;15.242;2023-06-05T08:18:35;26.64;36.37
69335;SHT31;56477;52.742;15.242;2023-06-05T08:21:01;26.91;34.99
69335;SHT31;56477;52.742;15.242;2023-06-05T08:23:28;26.86;35.90
69335;SHT31;56477;52.742;15.242;2023-06-05T08:25:54;26.44;35.85
69335;SHT31;56477;52.742;15.242;2023-06-05T08:28:21;26.33;33.77
69335;SHT31;56477;52.742;15.242;2023-06-05T08:30:47;26.90;34.55
69335;SHT31;56477;52.742;15.242;2023-06-05T08:33:14;27.19;33.67
69335;SHT31;56477;52.742;15.242;2023-06-05T08:35:43;27.62;33.77
69335;SHT31;56477;52.742;15.242;2023-06-05T08:38:09;27.55;33.05
69335;SHT31;56477;52.742;15.242;2023-06-05T08:40:35;27.79;33.54
69335;SHT31;56477;52.742;15.242;2023-06-05T08:43:02;27.96;31.09
69335;SHT31;56477;52.742;15.242;2023-06-05T08:45:30;26.36;32.05
69335;SHT31;56477;52.742;15.242;2023-06-05T08:47:59;26.74;32.42
69335;SHT31;56477;52.742;15.242;2023-06-05T08:50:28;26.21;33.76
69335;SHT31;56477;52.742;15.242;2023-06-05T08:52:57;26.76;34.89
69335;SHT31;56477;52.742;15.242;2023-06-05T08:55:24;26.74;31.95
69335;SHT31;56477;52.742;15.242;2023-06-05T08:57:51;27.71;32.88
69335;SHT31;56477;52.742;15.242;2023-06-05T09:00:18;27.70;31.89
69335;SHT31;56477;52.742;15.242;2023-06-05T09:02:44;28.25;30.72
69335;SHT31;56477;52.742;15.242;2023-06-05T09:05:16;27.66;30.58
69335;SHT31;56477;52.742;15.242;2023-06-05T09:07:43;27.38;30.13
69335;SHT31;56477;52.742;15.242;2023-06-05T09:12:54;27.60;29.85
69335;SHT31;56477;52.742;15.242;2023-06-05T09:15:25;28.01;27.04
69335;SHT31;56477;52.742;15.242;2023-06-05T09:18:04;27.89;28.12
69335;SHT31;56477;52.742;15.242;2023-06-05T09:20:32;27.92;28.39
69335;SHT31;56477;52.742;15.242;2023-06-05T09:23:02;27.19;30.19
69335;SHT31;56477;52.742;15.242;2023-06-05T09:25:46;27.39;28.43
69335;SHT31;56477;52.742;15.242;2023-06-05T09:28:17;26.74;29.23
69335;SHT31;56477;52.742;15.242;2023-06-05T09:31:00;26.36;30.01
69335;SHT31;56477;52.742;15.242;2023-06-05T09:33:29;27.45;30.64
69335;SHT31;56477;52.742;15.242;2023-06-05T09:36:02;27.94;30.19
69335;SHT31;56477;52.742;15.242;2023-06-05T09:38:29;28.04;28.49
69335;SHT31;56477;52.742;15.242;2023-06-05T09:41:05;28.24;28.13
69335;SHT31;56477;52.742;15.242;2023-06-05T09:43:32;27.65;29.22
69335;SHT31;56477;52.742;15.242;2023-06-05T09:46:06;28.41;30.27
69335;SHT31;56477;52.742;15.242;2023-06-05T09:48:32;28.45;29.71
69335;SHT31;56477;52.742;15.242;2023-06-05T09:51:08;28.21;28.84
69335;SHT31;56477;52.742;15.242;2023-06-05T09:53:35;28.41;29.97
69335;SHT31;56477;52.742;15.242;2023-06-05T09:56:03;27.53;30.04
69335;SHT31;56477;52.742;15.242;2023-06-05T09:58:29;27.46;30.15
69335;SHT31;56477;52.742;15.242;2023-06-05T10:00:56;27.76;29.66
69335;SHT31;56477;52.742;15.242;2023-06-05T10:03:26;26.98;29.93
69335;SHT31;56477;52.742;15.242;2023-06-05T10:05:53;27.76;31.37
69335;SHT31;56477;52.742;15.242;2023-06-05T10:08:20;27.60;30.49
69335;SHT31;56477;52.742;15.242;2023-06-05T10:10:46;27.60;30.98
69335;SHT31;56477;52.742;15.242;2023-06-05T10:13:14;27.69;31.75
69335;SHT31;56477;52.742;15.242;2023-06-05T10:15:40;28.44;30.41
69335;SHT31;56477;52.742;15.242;2023-06-05T10:18:08;28.31;29.88
69335;SHT31;56477;52.742;15.242;2023-06-05T10:20:35;27.74;29.51
69335;SHT31;56477;52.742;15.242;2023-06-05T10:23:04;26.97;30.69
69335;SHT31;56477;52.742;15.242;2023-06-05T10:25:31;26.64;31.36
69335;SHT31;56477;52.742;15.242;2023-06-05T10:28:29;27.02;30.47
69335;SHT31;56477;52.742;15.242;2023-06-05T10:31:20;26.57;32.07
69335;SHT31;56477;52.742;15.242;2023-06-05T10:34:08;27.11;31.96
69335;SHT31;56477;52.742;15.242;2023-06-05T10:39:23;28.21;30.12
69335;SHT31;56477;52.742;15.242;2023-06-05T10:41:51;28.62;30.09
69335;SHT31;56477;52.742;15.242;2023-06-05T10:44:17;29.00;29.34
69335;SHT31;56477;52.742;15.242;2023-06-05T10:46:43;28.83;29.39
69335;SHT31;56477;52.742;15.242;2023-06-05T10:49:13;29.00;31.09
69335;SHT31;56477;52.742;15.242;2023-06-05T10:51:52;29.47;30.00
69335;SHT31;56477;52.742;15.242;2023-06-05T10:59:22;28.22;28.83
69335;SHT31;56477;52.742;15.242;2023-06-05T11:17:48;27.34;30.29
69335;SHT31;56477;52.742;15.242;2023-06-05T11:28:03;28.52;29.11
69335;SHT31;56477;52.742;15.242;2023-06-05T11:30:42;28.55;28.80
69335;SHT31;56477;52.742;15.242;2023-06-05T11:33:09;29.41;28.53
69335;SHT31;56477;52.742;15.242;2023-06-05T11:35:39;29.43;28.81
69335;SHT31;56477;52.742;15.242;2023-06-05T11:38:09;28.98;28.23
69335;SHT31;56477;52.742;15.242;2023-06-05T11:40:35;29.02;29.42
69335;SHT31;56477;52.742;15.242;2023-06-05T11:43:06;29.30;29.13
69335;SHT31;56477;52.742;15.242;2023-06-05T11:45:33;29.67;27.65
69335;SHT31;56477;52.742;15.242;2023-06-05T11:48:08;29.53;28.25
69335;SHT31;56477;52.742;15.242;2023-06-05T11:50:39;29.22;29.10
69335;SHT31;56477;52.742;15.242;2023-06-05T11:53:09;29.81;27.84
69335;SHT31;56477;52.742;15.242;2023-06-05T11:55:36;30.20;26.72
69335;SHT31;56477;52.742;15.242;2023-06-05T11:58:37;29.38;27.17
69335;SHT31;56477;52.742;15.242;2023-06-05T12:03:41;28.74;28.72
69335;SHT31;56477;52.742;15.242;2023-06-05T12:06:07;28.58;28.41
69335;SHT31;56477;52.742;15.242;2023-06-05T12:08:34;28.71;27.31
69335;SHT31;56477;52.742;15.242;2023-06-05T12:11:22;28.34;28.79
69335;SHT31;56477;52.742;15.242;2023-06-05T12:13:55;28.04;28.91
69335;SHT31;56477;52.742;15.242;2023-06-05T12:19:18;28.34;28.52
69335;SHT31;56477;52.742;15.242;2023-06-05T12:21:46;28.76;28.24
69335;SHT31;56477;52.742;15.242;2023-06-05T12:24:12;29.26;27.81
69335;SHT31;56477;52.742;15.242;2023-06-05T12:26:55;29.40;26.79
69335;SHT31;56477;52.742;15.242;2023-06-05T12:29:24;29.81;28.04
69335;SHT31;56477;52.742;15.242;2023-06-05T12:31:51;30.23;27.06
69335;SHT31;56477;52.742;15.242;2023-06-05T12:34:17;30.12;27.31
69335;SHT31;56477;52.742;15.242;2023-06-05T12:36:44;29.82;27.05
69335;SHT31;56477;52.742;15.242;2023-06-05T12:39:11;30.35;27.48
69335;SHT31;56477;52.742;15.242;2023-06-05T12:41:39;30.50;26.97
69335;SHT31;56477;52.742;15.242;2023-06-05T12:44:06;30.60;26.26
69335;SHT31;56477;52.742;15.242;2023-06-05T12:46:34;30.81;26.46
69335;SHT31;56477;52.742;15.242;2023-06-05T12:49:02;30.36;26.60
69335;SHT31;56477;52.742;15.242;2023-06-05T12:51:28;29.19;27.67
69335;SHT31;56477;52.742;15.242;2023-06-05T12:53:56;28.80;27.99
69335;SHT31;56477;52.742;15.242;2023-06-05T12:56:23;29.03;27.78
69335;SHT31;56477;52.742;15.242;2023-06-05T12:58:54;29.60;26.48
69335;SHT31;56477;52.742;15.242;2023-06-05T13:01:22;29.13;26.99
69335;SHT31;56477;52.742;15.242;2023-06-05T13:03:48;28.88;27.08
69335;SHT31;56477;52.742;15.242;2023-06-05T13:06:14;28.44;27.03
69335;SHT31;56477;52.742;15.242;2023-06-05T13:08:40;28.62;28.71
69335;SHT31;56477;52.742;15.242;2023-06-05T13:11:06;28.20;27.64
69335;SHT31;56477;52.742;15.242;2023-06-05T13:13:32;28.44;28.63
69335;SHT31;56477;52.742;15.242;2023-06-05T13:15:59;28.72;28.63
69335;SHT31;56477;52.742;15.242;2023-06-05T13:18:30;29.09;27.54
69335;SHT31;56477;52.742;15.242;2023-06-05T13:20:57;28.68;27.77
69335;SHT31;56477;52.742;15.242;2023-06-05T13:23:22;28.75;28.08
69335;SHT31;56477;52.742;15.242;2023-06-05T13:25:48;29.20;27.98
69335;SHT31;56477;52.742;15.242;2023-06-05T13:28:14;29.31;26.61
69335;SHT31;56477;52.742;15.242;2023-06-05T13:30:41;29.27;27.13
69335;SHT31;56477;52.742;15.242;2023-06-05T13:33:08;29.00;26.92
69335;SHT31;56477;52.742;15.242;2023-06-05T13:35:34;28.71;27.73
69335;SHT31;56477;52.742;15.242;2023-06-05T13:38:00;28.07;27.27
69335;SHT31;56477;52.742;15.242;2023-06-05T13:40:26;27.67;27.45
69335;SHT31;56477;52.742;15.242;2023-06-05T13:42:54;27.42;28.77
69335;SHT31;56477;52.742;15.242;2023-06-05T13:45:20;27.49;28.67
69335;SHT31;56477;52.742;15.242;2023-06-05T13:47:46;27.46;28.56
69335;SHT31;56477;52.742;15.242;2023-06-05T13:50:13;27.11;29.50
69335;SHT31;56477;52.742;15.242;2023-06-05T13:52:38;27.02;29.02
69335;SHT31;56477;52.742;15.242;2023-06-05T13:55:05;26.86;28.87
69335;SHT31;56477;52.742;15.242;2023-06-05T13:57:31;26.70;29.86
69335;SHT31;56477;52.742;15.242;2023-06-05T13:59:58;26.56;29.17
69335;SHT31;56477;52.742;15.242;2023-06-05T14:02:23;26.42;28.60
69335;SHT31;56477;52.742;15.242;2023-06-05T14:04:50;26.54;29.12
69335;SHT31;56477;52.742;15.242;2023-06-05T14:07:15;26.63;29.62
69335;SHT31;56477;52.742;15.242;2023-06-05T14:09:42;26.74;28.58
69335;SHT31;56477;52.742;15.242;2023-06-05T14:12:07;26.47;28.74
69335;SHT31;56477;52.742;15.242;2023-06-05T14:14:36;26.43;28.89
69335;SHT31;56477;52.742;15.242;2023-06-05T14:17:01;26.16;29.19
69335;SHT31;56477;52.742;15.242;2023-06-05T14:19:28;26.28;28.85
69335;SHT31;56477;52.742;15.242;2023-06-05T14:21:53;26.40;28.41
69335;SHT31;56477;52.742;15.242;2023-06-05T14:24:19;26.40;28.02
69335;SHT31;56477;52.742;15.242;2023-06-05T14:26:45;26.40;29.15
69335;SHT31;56477;52.742;15.242;2023-06-05T14:29:12;26.52;30.04
69335;SHT31;56477;52.742;15.242;2023-06-05T14:31:38;26.77;30.34
69335;SHT31;56477;52.742;15.242;2023-06-05T14:34:04;26.71;29.64
69335;SHT31;56477;52.742;15.242;2023-06-05T14:36:30;26.36;29.30
69335;SHT31;56477;52.742;15.242;2023-06-05T14:38:56;26.64;29.96
69335;SHT31;56477;52.742;15.242;2023-06-05T14:41:22;26.74;29.45
69335;SHT31;56477;52.742;15.242;2023-06-05T14:43:47;26.73;29.11
69335;SHT31;56477;52.742;15.242;2023-06-05T14:46:14;26.80;29.05
69335;SHT31;56477;52.742;15.242;2023-06-05T14:48:40;27.00;29.75
69335;SHT31;56477;52.742;15.242;2023-06-05T14:51:07;26.83;29.21
69335;SHT31;56477;52.742;15.242;2023-06-05T14:53:33;26.71;29.35
69335;SHT31;56477;52.742;15.242;2023-06-05T14:55:59;26.71;29.12
69335;SHT31;56477;52.742;15.242;2023-06-05T14:58:25;26.84;29.20
69335;SHT31;56477;52.742;15.242;2023-06-05T15:00:52;27.11;28.73
69335;SHT31;56477;52.742;15.242;2023-06-05T15:03:17;27.39;29.09
69335;SHT31;56477;52.742;15.242;2023-06-05T15:05:44;27.58;28.57
69335;SHT31;56477;52.742;15.242;2023-06-05T15:08:09;27.66;28.80
69335;SHT31;56477;52.742;15.242;2023-06-05T15:10:36;27.38;28.45
69335;SHT31;56477;52.742;15.242;2023-06-05T15:13:02;26.54;29.49
69335;SHT31;56477;52.742;15.242;2023-06-05T15:15:29;26.53;29.74
69335;SHT31;56477;52.742;15.242;2023-06-05T15:17:55;26.70;30.16
69335;SHT31;56477;52.742;15.242;2023-06-05T15:20:21;26.47;30.09
69335;SHT31;56477;52.742;15.242;2023-06-05T15:22:48;26.33;29.57
69335;SHT31;56477;52.742;15.242;2023-06-05T15:25:15;26.26;29.38
69335;SHT31;56477;52.742;15.242;2023-06-05T15:27:40;26.28;29.48
69335;SHT31;56477;52.742;15.242;2023-06-05T15:30:08;26.09;29.25
69335;SHT31;56477;52.742;15.242;2023-06-05T15:32:34;25.81;29.26
69335;SHT31;56477;52.742;15.242;2023-06-05T15:35:00;25.77;29.99
69335;SHT31;56477;52.742;15.242;2023-06-05T15:37:26;26.11;30.34
69335;SHT31;56477;52.742;15.242;2023-06-05T15:39:52;26.22;29.95
69335;SHT31;56477;52.742;15.242;2023-06-05T15:42:27;26.19;29.45
69335;SHT31;56477;52.742;15.242;2023-06-05T15:45:08;25.99;29.71
69335;SHT31;56477;52.742;15.242;2023-06-05T15:47:34;26.06;29.75
69335;SHT31;56477;52.742;15.242;2023-06-05T15:50:02;26.16;29.64
69335;SHT31;56477;52.742;15.242;2023-06-05T15:52:30;26.18;30.24
69335;SHT31;56477;52.742;15.242;2023-06-05T15:54:57;26.06;30.69
69335;SHT31;56477;52.742;15.242;2023-06-05T15:57:24;26.16;30.61
69335;SHT31;56477;52.742;15.242;2023-06-05T15:59:50;26.26;30.81